Portada
METAR-TAF:

METAR-TAF

Aeroports :

Àqaba, Jordània

latitud: 29-38N, longitud: 035-01E, altitud: 53 m

Observació

L'informe es va fer fa 1 hora i 2 minuts, a les 06:00 UTC
Vent 4 kt del Nord
Temperatura 14°C
Humitat 63%
Pressió 1023 hPa
Visibilitat 10 km o més
sense núvols per sota de 1500 mi sense presència de cumulonimbus.

METAR: OJAQ 250600Z 36004KT CAVOK 14/07 Q1023 NOSIG

Hora: 09:02 (07:02 UTC)

Pronòstic

L'informe es va fer fa 2 hores i 7 minuts, a les 04:55 UTC
Pronòstic vàlid del 25 a les 06 UTC al 26 a les 12 UTC
Vent 2 kt amb direcció variable
Visibilitat 10 km o més
sense núvols per sota de 1500 mi sense presència de cumulonimbus.
Evolucionant progressivament
l' 25 a les 10 UTC al 25 a les 12 UTC
Vent 12 kt del Nord

TAF: OJAQ 250455Z 2506/2612 VRB02KT CAVOK BECMG 2510/2512 36012KT

Observacions i pronòstics meteorològics de més de 4000 aeroports (METAR i TAF).

Les estacions disponibles són els punts grocs i vermells al mapa.

Posi el ratolí al punt desitjat per veure el nom de l'estació.

Feu clic per veure les observacions i els pronòstics meteorològics.

Per canviar el mapa: feu clic els botons verds amb una creu de color negre per apropar; al botó verd amb un guió per allunyar la imatge; o en les fletxes verdes per a mapes adjacents.


METAR-TAF: